Time;durP1;ratioP1;P1;durP2;ratioP2;P2;SDS_P1;SDS_P2;PMS_P1;PMS_P2;Temp;Humidity;BMP_temperature;BMP_pressure;BME280_temperature;BME280_humidity;BME280_pressure;Samples;Min_cycle;Max_cycle;Signal;HPM_P1;HPM_P2
2021/11/13 00:00:01;;;;;;;43.28;24.07;;;;;;;7.13;67.34;101434.29;1688165;80;21376;-57
2021/11/13 00:03:11;;;;;;;48.38;26.77;;;;;;;7.16;67.31;101437.24;1749402;81;21386;-54
2021/11/13 00:06:18;;;;;;;44.90;25.05;;;;;;;7.16;67.25;101438.12;1761505;79;21362;-54
2021/11/13 00:09:25;;;;;;;39.23;23.40;;;;;;;7.16;67.13;101438.12;1749958;78;21307;-54
2021/11/13 00:12:31;;;;;;;36.30;20.27;;;;;;;7.15;67.16;101433.64;1765677;79;21158;-56
2021/11/13 00:15:41;;;;;;;32.05;18.77;;;;;;;7.17;67.15;101433.52;1764835;78;21390;-54
2021/11/13 00:18:47;;;;;;;26.95;16.62;;;;;;;7.16;67.12;101435.39;1774608;79;21224;-55
2021/11/13 00:21:54;;;;;;;26.10;17.02;;;;;;;7.15;67.09;101443.69;1756009;79;21393;-55
2021/11/13 00:25:00;;;;;;;31.25;18.17;;;;;;;7.11;67.19;101437.63;1759179;78;21840;-55
2021/11/13 00:28:08;;;;;;;31.55;17.57;;;;;;;7.10;67.29;101433.16;1767931;81;21209;-54
2021/11/13 00:31:15;;;;;;;34.05;19.42;;;;;;;7.09;67.39;101438.73;1764737;80;21249;-55
2021/11/13 00:34:21;;;;;;;36.42;20.43;;;;;;;7.08;67.46;101434.29;1757947;79;21274;-53
2021/11/13 00:37:27;;;;;;;34.13;20.15;;;;;;;7.07;67.58;101429.33;1758266;78;21567;-55
2021/11/13 00:40:35;;;;;;;33.35;19.42;;;;;;;7.07;67.63;101419.80;1730326;79;21278;-53
2021/11/13 00:43:41;;;;;;;33.65;21.07;;;;;;;7.07;67.67;101427.97;1743810;78;22165;-54
2021/11/13 00:46:47;;;;;;;38.05;21.45;;;;;;;7.03;67.71;101425.16;1756714;79;21374;-54
2021/11/13 00:49:54;;;;;;;35.95;23.32;;;;;;;7.00;67.82;101428.12;1759408;79;21362;-54
2021/11/13 00:53:02;;;;;;;38.45;23.50;;;;;;;6.97;67.93;101426.16;1752632;79;21349;-54
2021/11/13 00:56:08;;;;;;;38.55;21.68;;;;;;;6.92;67.99;101432.47;1760238;79;21219;-54
2021/11/13 00:59:14;;;;;;;34.27;18.57;;;;;;;6.85;68.09;101433.98;1759773;79;21702;-53
2021/11/13 01:02:20;;;;;;;31.57;18.55;;;;;;;6.77;68.20;101439.19;1756747;80;21824;-54
2021/11/13 01:05:29;;;;;;;39.45;22.22;;;;;;;6.69;68.40;101441.16;1763282;79;21367;-54
2021/11/13 01:08:35;;;;;;;36.58;21.02;;;;;;;6.59;68.60;101444.28;1756948;80;21355;-55
2021/11/13 01:11:42;;;;;;;40.92;22.07;;;;;;;6.51;68.82;101450.84;1769659;78;21196;-54
2021/11/13 01:14:47;;;;;;;37.15;20.65;;;;;;;6.43;69.03;101454.66;1759532;79;21400;-54
2021/11/13 01:17:53;;;;;;;33.15;20.35;;;;;;;6.35;69.23;101447.61;1763251;79;21251;-55
2021/11/13 01:20:59;;;;;;;33.60;19.45;;;;;;;6.27;69.41;101447.36;1771826;77;21726;-55
2021/11/13 01:24:08;;;;;;;33.50;19.60;;;;;;;6.19;69.58;101451.18;1762399;77;21762;-54
2021/11/13 01:27:12;;;;;;;29.65;18.30;;;;;;;6.08;69.66;101457.48;1768525;76;21217;-55
2021/11/13 01:30:19;;;;;;;31.60;19.12;;;;;;;6.01;69.91;101460.78;1750277;77;21243;-55
2021/11/13 01:33:24;;;;;;;31.68;18.48;;;;;;;5.94;70.24;101459.06;1758750;79;21417;-55
2021/11/13 01:36:31;;;;;;;31.80;18.20;;;;;;;5.89;70.50;101457.67;1762538;77;21193;-55
2021/11/13 01:39:38;;;;;;;31.20;18.98;;;;;;;5.85;70.59;101460.27;1761826;77;21189;-56
2021/11/13 01:42:45;;;;;;;33.33;18.95;;;;;;;5.77;70.61;101459.45;1758999;77;21904;-55
2021/11/13 01:45:50;;;;;;;33.38;19.75;;;;;;;5.71;70.92;101457.22;1773662;81;21327;-55
2021/11/13 01:48:57;;;;;;;31.70;19.02;;;;;;;5.68;71.10;101459.30;1764524;77;21871;-53
2021/11/13 01:52:05;;;;;;;30.97;17.70;;;;;;;5.60;71.13;101463.09;1761790;78;21245;-55
2021/11/13 01:55:12;;;;;;;38.38;19.30;;;;;;;5.51;71.19;101459.73;1755576;81;21255;-55
2021/11/13 01:58:18;;;;;;;30.10;19.32;;;;;;;5.40;71.32;101448.83;1767914;81;21169;-55
2021/11/13 02:01:23;;;;;;;33.00;19.85;;;;;;;5.30;71.59;101458.64;1763754;76;21315;-54
2021/11/13 02:04:28;;;;;;;29.77;18.45;;;;;;;5.20;71.70;101469.84;1764873;78;21343;-55
2021/11/13 02:07:36;;;;;;;33.33;20.57;;;;;;;5.08;71.83;101470.74;1755340;77;21318;-56
2021/11/13 02:10:44;;;;;;;39.67;21.65;;;;;;;4.94;71.99;101468.20;1753626;77;21255;-55
2021/11/13 02:13:50;;;;;;;35.83;21.05;;;;;;;4.85;72.30;101470.23;1755069;77;21269;-54
2021/11/13 02:16:56;;;;;;;40.43;22.62;;;;;;;4.76;72.51;101478.55;1766564;77;21342;-55
2021/11/13 02:20:02;;;;;;;45.15;22.95;;;;;;;4.67;72.64;101486.01;1757341;77;21365;-54
2021/11/13 02:23:15;;;;;;;43.85;23.77;;;;;;;4.59;72.97;101482.98;1760239;78;21200;-55
2021/11/13 02:26:22;;;;;;;40.03;22.70;;;;;;;4.48;73.11;101491.91;1774040;77;21876;-55
2021/11/13 02:29:27;;;;;;;36.45;20.85;;;;;;;4.41;73.44;101493.78;1770032;80;21327;-54
2021/11/13 02:32:33;;;;;;;33.78;20.82;;;;;;;4.37;73.88;101495.88;1752072;77;21351;-54
2021/11/13 02:35:41;;;;;;;39.50;22.90;;;;;;;4.34;74.32;101502.84;1704057;77;21555;-55
2021/11/13 02:38:54;;;;;;;37.63;20.60;;;;;;;4.38;74.95;101512.50;1757691;76;21342;-54
2021/11/13 02:41:58;;;;;;;35.90;22.27;;;;;;;4.42;75.36;101532.98;1766328;77;21366;-54
2021/11/13 02:45:03;;;;;;;40.63;22.77;;;;;;;4.46;75.59;101522.31;1758144;77;21228;-55
2021/11/13 02:48:09;;;;;;;41.88;22.37;;;;;;;4.49;75.68;101523.93;1752761;77;21320;-54
2021/11/13 02:51:18;;;;;;;38.48;20.65;;;;;;;4.49;75.76;101520.73;1746387;77;21420;-54
2021/11/13 02:54:27;;;;;;;42.30;22.25;;;;;;;4.50;75.85;101523.81;1748180;78;21201;-54
2021/11/13 02:57:33;;;;;;;41.25;21.00;;;;;;;4.51;75.96;101529.64;1756894;78;21351;-55
2021/11/13 03:00:43;;;;;;;36.35;21.02;;;;;;;4.50;76.08;101536.02;1780501;77;21233;-55
2021/11/13 03:03:49;;;;;;;32.25;20.08;;;;;;;4.50;76.14;101534.66;1789531;78;21855;-55
2021/11/13 03:06:55;;;;;;;35.25;20.92;;;;;;;4.48;76.16;101528.51;1787090;76;21410;-54
2021/11/13 03:10:02;;;;;;;36.08;20.82;;;;;;;4.45;76.17;101532.80;1786697;77;21343;-55
2021/11/13 03:13:09;;;;;;;35.52;20.45;;;;;;;4.44;76.27;101536.94;1789741;77;21185;-55
2021/11/13 03:16:15;;;;;;;34.08;19.82;;;;;;;4.42;76.36;101544.34;1767708;76;21204;-56
2021/11/13 03:19:23;;;;;;;34.30;20.65;;;;;;;4.37;76.42;101546.02;1785654;77;21315;-54
2021/11/13 03:22:28;;;;;;;30.65;19.48;;;;;;;4.34;76.57;101548.07;1799653;79;21346;-54
2021/11/13 03:25:38;;;;;;;38.08;20.65;;;;;;;4.32;76.73;101553.60;1788953;77;21421;-55
2021/11/13 03:28:45;;;;;;;35.05;19.92;;;;;;;4.29;76.83;101552.47;1785617;77;21388;-55
2021/11/13 03:31:53;;;;;;;39.67;22.90;;;;;;;4.27;76.97;101548.11;1792139;77;21244;-55
2021/11/13 03:35:01;;;;;;;42.50;24.98;;;;;;;4.25;77.13;101545.51;1769365;79;21338;-54
2021/11/13 03:38:11;;;;;;;37.35;21.68;;;;;;;4.23;77.29;101548.80;1793792;76;21354;-54
2021/11/13 03:41:18;;;;;;;37.03;21.12;;;;;;;4.22;77.45;101555.21;1788155;77;21773;-54
2021/11/13 03:44:23;;;;;;;36.58;21.15;;;;;;;4.20;77.53;101554.95;1766834;78;21349;-56
2021/11/13 03:47:29;;;;;;;33.98;20.43;;;;;;;4.16;77.66;101558.83;1777973;78;21320;-55
2021/11/13 03:50:35;;;;;;;34.48;21.05;;;;;;;4.12;77.78;101559.52;1779157;78;21334;-55
2021/11/13 03:53:41;;;;;;;35.78;20.85;;;;;;;4.08;77.98;101564.79;1771765;77;21350;-54
2021/11/13 03:56:49;;;;;;;33.58;20.12;;;;;;;4.02;78.15;101567.92;1788932;78;21220;-54
2021/11/13 03:59:55;;;;;;;34.78;20.23;;;;;;;3.98;78.26;101569.61;1783467;78;21447;-55
2021/11/13 04:03:02;;;;;;;30.72;19.90;;;;;;;3.94;78.43;101570.30;1782193;77;21832;-54
2021/11/13 04:06:08;;;;;;;40.90;21.52;;;;;;;3.91;78.54;101575.92;1789547;79;21373;-56
2021/11/13 04:09:17;;;;;;;33.45;19.92;;;;;;;3.86;78.71;101574.01;1763533;79;21248;-56
2021/11/13 04:12:25;;;;;;;37.78;21.60;;;;;;;3.82;78.84;101575.17;1785601;78;21351;-55
2021/11/13 04:15:32;;;;;;;36.83;19.80;;;;;;;3.78;78.89;101574.13;1785749;77;21224;-54
2021/11/13 04:18:38;;;;;;;33.30;20.52;;;;;;;3.72;79.01;101576.78;1773923;76;21200;-55
2021/11/13 04:21:46;;;;;;;35.75;21.05;;;;;;;3.68;79.12;101583.36;1787392;77;21252;-54
2021/11/13 04:24:52;;;;;;;38.40;21.17;;;;;;;3.62;79.16;101577.01;1786894;77;21403;-55
2021/11/13 04:27:58;;;;;;;34.75;20.00;;;;;;;3.57;79.25;101577.80;1794238;76;21410;-54
2021/11/13 04:31:07;;;;;;;35.25;19.50;;;;;;;3.53;79.30;101587.58;1782048;78;21284;-55
2021/11/13 04:34:22;;;;;;;32.80;19.92;;;;;;;3.49;79.26;101584.20;1788551;77;21168;-54
2021/11/13 04:37:26;;;;;;;31.95;19.67;;;;;;;3.44;79.27;101582.28;1797945;79;21312;-55
2021/11/13 04:40:38;;;;;;;38.48;20.48;;;;;;;3.40;79.33;101597.47;1791846;78;21397;-54
2021/11/13 04:43:45;;;;;;;36.38;20.62;;;;;;;3.35;79.32;101600.96;1773070;77;21331;-54
2021/11/13 04:46:52;;;;;;;34.65;20.68;;;;;;;3.29;79.34;101598.19;1792096;78;21355;-55
2021/11/13 04:49:59;;;;;;;44.13;22.60;;;;;;;3.22;79.50;101595.98;1786509;77;21413;-54
2021/11/13 04:53:06;;;;;;;47.58;31.02;;;;;;;3.16;79.71;101590.47;1800127;77;21195;-55
2021/11/13 04:56:11;;;;;;;47.33;29.80;;;;;;;3.13;79.84;101594.73;1784647;76;21246;-54
2021/11/13 04:59:18;;;;;;;58.48;36.45;;;;;;;3.11;79.96;101598.02;1771889;78;21407;-54
2021/11/13 05:02:23;;;;;;;63.73;37.70;;;;;;;3.11;80.01;101599.87;1802074;79;21319;-54
2021/11/13 05:05:31;;;;;;;52.65;33.85;;;;;;;3.08;79.87;101608.56;1765732;77;21406;-55
2021/11/13 05:08:36;;;;;;;60.23;36.48;;;;;;;3.06;79.97;101605.55;1751719;78;21359;-55
2021/11/13 05:11:43;;;;;;;64.25;32.17;;;;;;;3.03;79.82;101623.34;1760883;78;21201;-54
2021/11/13 05:14:48;;;;;;;67.32;32.05;;;;;;;2.97;79.67;101625.08;1745432;76;21457;-54
2021/11/13 05:17:58;;;;;;;70.35;35.85;;;;;;;2.89;79.51;101630.10;1746911;78;21902;-54
2021/11/13 05:21:04;;;;;;;82.82;41.25;;;;;;;2.82;79.39;101638.23;1753478;78;21450;-55
2021/11/13 05:24:12;;;;;;;93.70;46.75;;;;;;;2.78;79.37;101638.02;1734035;79;21205;-53
2021/11/13 05:27:18;;;;;;;95.75;46.42;;;;;;;2.74;79.40;101642.75;1758767;81;21296;-55
2021/11/13 05:30:25;;;;;;;85.97;43.92;;;;;;;2.71;79.45;101651.55;1739791;78;21237;-55
2021/11/13 05:33:33;;;;;;;83.87;45.05;;;;;;;2.67;79.35;101657.63;1746824;77;21221;-55
2021/11/13 05:36:38;;;;;;;75.62;40.52;;;;;;;2.66;79.44;101668.53;1746412;76;21232;-56
2021/11/13 05:39:43;;;;;;;76.07;49.73;;;;;;;2.66;79.53;101661.27;1761651;78;21339;-55
2021/11/13 05:42:49;;;;;;;79.80;44.83;;;;;;;2.68;79.64;101666.61;1751562;78;21295;-55
2021/11/13 05:45:55;;;;;;;69.70;39.13;;;;;;;2.67;79.55;101677.90;1756171;79;21228;-54
2021/11/13 05:49:01;;;;;;;89.67;47.38;;;;;;;2.66;79.44;101674.78;1751068;79;21961;-55
2021/11/13 05:52:06;;;;;;;66.60;38.63;;;;;;;2.64;79.34;101676.74;1758381;78;21395;-54
2021/11/13 05:55:14;;;;;;;57.15;32.28;;;;;;;2.63;79.27;101684.95;1761194;79;21467;-55
2021/11/13 05:58:20;;;;;;;78.17;39.13;;;;;;;2.62;79.35;101688.59;1767471;78;21379;-54
2021/11/13 06:01:25;;;;;;;69.67;38.02;;;;;;;2.68;79.88;101699.91;1761081;77;21369;-56
2021/11/13 06:04:31;;;;;;;87.05;43.78;;;;;;;2.80;80.40;101696.47;1757966;78;21331;-55
2021/11/13 06:07:36;;;;;;;86.45;43.45;;;;;;;2.92;80.70;101709.22;1770170;77;21445;-54
2021/11/13 06:10:40;;;;;;;85.60;42.08;;;;;;;3.02;80.69;101701.40;1764467;80;21310;-55
2021/11/13 06:13:47;;;;;;;69.95;36.98;;;;;;;3.12;80.76;101699.87;1759124;80;21746;-54
2021/11/13 06:16:53;;;;;;;65.57;33.15;;;;;;;3.22;80.79;101701.00;1753524;77;21319;-54
2021/11/13 06:19:58;;;;;;;64.15;33.15;;;;;;;3.32;80.89;101713.00;1765715;77;21215;-55
2021/11/13 06:23:07;;;;;;;55.58;29.98;;;;;;;3.44;81.05;101714.91;1757747;78;21220;-55
2021/11/13 06:26:13;;;;;;;50.20;28.23;;;;;;;3.55;81.17;101714.23;1762760;78;21205;-55
2021/11/13 06:29:22;;;;;;;49.63;26.05;;;;;;;3.64;81.25;101715.87;1760462;79;21219;-55
2021/11/13 06:32:26;;;;;;;56.98;28.07;;;;;;;3.77;81.33;101718.17;1755124;79;21621;-55
2021/11/13 06:35:33;;;;;;;51.68;29.25;;;;;;;3.87;81.26;101722.00;1759919;79;21331;-55
2021/11/13 06:38:41;;;;;;;58.65;30.57;;;;;;;3.97;81.23;101721.78;1765283;79;21853;-55
2021/11/13 06:41:47;;;;;;;56.55;30.20;;;;;;;4.08;81.18;101728.72;1781372;80;21203;-55
2021/11/13 06:44:53;;;;;;;44.77;24.77;;;;;;;4.19;81.11;101729.34;1773745;77;21322;-55
2021/11/13 06:48:01;;;;;;;49.08;26.93;;;;;;;4.30;81.14;101728.13;1791147;77;21387;-55
2021/11/13 06:51:07;;;;;;;44.70;25.65;;;;;;;4.39;81.22;101724.31;1795974;78;21844;-56
2021/11/13 06:54:15;;;;;;;38.98;23.50;;;;;;;4.48;81.29;101721.48;1784115;78;21324;-57
2021/11/13 06:57:21;;;;;;;38.35;22.95;;;;;;;4.59;81.33;101729.27;1787459;78;21205;-54
2021/11/13 07:00:27;;;;;;;46.60;24.32;;;;;;;4.69;81.26;101732.70;1795536;79;21352;-54
2021/11/13 07:03:33;;;;;;;42.13;24.65;;;;;;;4.76;81.18;101728.61;1792400;76;21405;-55
2021/11/13 07:06:39;;;;;;;43.85;24.95;;;;;;;4.86;81.19;101729.69;1768057;77;21953;-55
2021/11/13 07:09:47;;;;;;;42.45;24.25;;;;;;;4.95;81.13;101735.34;1754175;78;21358;-56
2021/11/13 07:12:52;;;;;;;43.78;23.35;;;;;;;5.02;80.95;101728.52;1759405;78;21315;-56
2021/11/13 07:16:00;;;;;;;42.95;23.05;;;;;;;5.06;80.83;101729.18;1735221;77;21269;-56
2021/11/13 07:19:06;;;;;;;42.10;24.18;;;;;;;5.13;80.76;101733.17;1759201;77;21289;-56
2021/11/13 07:22:13;;;;;;;37.20;21.57;;;;;;;5.19;80.78;101732.73;1753935;78;21378;-54
2021/11/13 07:25:18;;;;;;;45.50;25.12;;;;;;;5.25;80.67;101726.39;1745847;77;21446;-55
2021/11/13 07:28:38;;;;;;;41.60;23.55;;;;;;;5.33;80.64;101729.91;1755570;76;21283;-55
2021/11/13 07:31:42;;;;;;;37.98;22.80;;;;;;;5.37;80.46;101730.96;1762474;77;21748;-54
2021/11/13 07:34:50;;;;;;;43.13;25.25;;;;;;;5.42;80.38;101726.55;1730320;76;21192;-55
2021/11/13 07:37:56;;;;;;;38.63;23.50;;;;;;;5.49;80.38;101741.41;1739995;79;21369;-56
2021/11/13 07:41:02;;;;;;;45.55;25.65;;;;;;;5.52;80.12;101739.83;1755268;78;21946;-55
2021/11/13 07:44:09;;;;;;;45.95;26.62;;;;;;;5.58;80.16;101743.48;1760515;78;21367;-55
2021/11/13 07:47:15;;;;;;;45.50;26.77;;;;;;;5.66;80.11;101743.29;1753419;79;21165;-55
2021/11/13 07:50:22;;;;;;;46.68;27.02;;;;;;;5.74;80.10;101739.52;1772504;78;21199;-54
2021/11/13 07:53:28;;;;;;;46.85;25.27;;;;;;;5.82;79.99;101741.22;1769939;78;21770;-55
2021/11/13 07:56:34;;;;;;;45.17;24.87;;;;;;;5.92;79.88;101741.42;1768262;78;21589;-53
2021/11/13 07:59:42;;;;;;;46.60;25.17;;;;;;;6.01;79.80;101736.65;1765194;78;21860;-56
2021/11/13 08:02:50;;;;;;;41.37;24.20;;;;;;;6.10;79.62;101747.70;1780101;78;21710;-53
2021/11/13 08:05:57;;;;;;;43.10;25.15;;;;;;;6.20;79.42;101746.53;1757133;77;21213;-54
2021/11/13 08:09:03;;;;;;;47.13;25.85;;;;;;;6.26;79.18;101747.45;1756821;78;21578;-54
2021/11/13 08:12:09;;;;;;;43.15;23.07;;;;;;;6.32;78.99;101742.91;1715902;79;21230;-54
2021/11/13 08:15:15;;;;;;;42.15;22.05;;;;;;;6.40;78.91;101745.92;1764656;78;22104;-54
2021/11/13 08:18:26;;;;;;;38.13;22.65;;;;;;;6.50;78.77;101758.33;1778709;76;21741;-54
2021/11/13 08:21:34;;;;;;;38.55;22.98;;;;;;;6.60;78.62;101761.59;1763560;77;21845;-55
2021/11/13 08:24:43;;;;;;;37.38;22.07;;;;;;;6.70;78.35;101753.11;1758801;78;21855;-55
2021/11/13 08:27:49;;;;;;;34.03;20.97;;;;;;;6.77;78.14;101750.27;1756956;79;21270;-55
2021/11/13 08:30:56;;;;;;;34.95;20.65;;;;;;;6.87;77.89;101750.42;1757228;77;21208;-55
2021/11/13 08:34:03;;;;;;;39.00;21.75;;;;;;;6.94;77.52;101754.42;1753049;79;21200;-54
2021/11/13 08:37:12;;;;;;;37.48;21.97;;;;;;;7.02;77.31;101751.97;1757629;77;21361;-54
2021/11/13 08:40:32;;;;;;;35.45;20.72;;;;;;;7.10;76.97;101755.81;1759379;77;21252;-54
2021/11/13 08:43:40;;;;;;;36.38;21.35;;;;;;;7.20;76.61;101761.41;1759945;78;21220;-53
2021/11/13 08:46:46;;;;;;;37.15;22.30;;;;;;;7.26;76.18;101760.42;1761463;77;21223;-54
2021/11/13 08:49:56;;;;;;;37.73;22.42;;;;;;;7.30;75.87;101760.58;1767628;77;21251;-54
2021/11/13 08:53:07;;;;;;;38.40;21.65;;;;;;;7.32;75.59;101756.37;1765822;78;21812;-54
2021/11/13 08:56:15;;;;;;;33.20;19.50;;;;;;;7.38;75.53;101755.87;1776779;79;21219;-53
2021/11/13 08:59:22;;;;;;;29.12;18.27;;;;;;;7.46;75.32;101755.64;1778526;77;21812;-53
2021/11/13 09:02:32;;;;;;;36.15;20.62;;;;;;;7.55;75.12;101758.98;1739656;79;21812;-53
2021/11/13 09:05:38;;;;;;;28.60;16.97;;;;;;;7.65;74.78;101759.12;1773301;78;21721;-54
2021/11/13 09:08:46;;;;;;;43.52;23.45;;;;;;;7.73;74.42;101758.48;1769503;77;21216;-54
2021/11/13 09:11:52;;;;;;;34.73;20.45;;;;;;;7.79;74.06;101762.95;1756388;80;21190;-55
2021/11/13 09:15:04;;;;;;;31.35;18.55;;;;;;;7.86;73.78;101753.30;1758751;77;21440;-54
2021/11/13 09:18:10;;;;;;;31.93;17.77;;;;;;;7.93;73.58;101749.58;1742220;81;21249;-53
2021/11/13 09:21:16;;;;;;;27.67;15.90;;;;;;;8.03;73.20;101753.26;1751119;79;21280;-57
2021/11/13 09:24:22;;;;;;;26.73;17.52;;;;;;;8.08;72.82;101753.75;1757691;79;21170;-55
2021/11/13 09:27:32;;;;;;;27.67;17.45;;;;;;;8.13;72.58;101759.70;1764583;77;21761;-54
2021/11/13 09:30:42;;;;;;;26.17;16.77;;;;;;;8.21;72.33;101758.57;1770740;79;21200;-54
2021/11/13 09:33:51;;;;;;;30.08;15.95;;;;;;;8.29;72.07;101760.20;1770913;78;21385;-54
2021/11/13 09:36:56;;;;;;;27.37;16.60;;;;;;;8.37;71.73;101765.36;1783944;79;21178;-54
2021/11/13 09:40:02;;;;;;;27.62;16.45;;;;;;;8.41;71.38;101762.77;1771874;77;21345;-55
2021/11/13 09:43:11;;;;;;;32.98;17.40;;;;;;;8.47;71.12;101764.09;1762411;79;21192;-54
2021/11/13 09:46:20;;;;;;;26.60;15.45;;;;;;;8.53;71.06;101761.72;1787264;77;21176;-55
2021/11/13 09:49:27;;;;;;;26.20;16.07;;;;;;;8.61;70.68;101755.13;1768330;77;21237;-54
2021/11/13 09:52:35;;;;;;;26.52;15.55;;;;;;;8.71;70.41;101757.45;1774438;77;21270;-54
2021/11/13 09:55:40;;;;;;;25.08;14.78;;;;;;;8.77;69.90;101751.46;1765921;77;21274;-55
2021/11/13 09:58:46;;;;;;;26.23;14.90;;;;;;;8.82;69.50;101758.77;1743976;79;21204;-55
2021/11/13 10:01:52;;;;;;;26.87;15.03;;;;;;;8.84;69.06;101764.09;1768234;79;22299;-55
2021/11/13 10:04:58;;;;;;;23.15;14.93;;;;;;;8.86;68.92;101760.73;1771417;78;21624;-54
2021/11/13 10:08:06;;;;;;;26.68;14.25;;;;;;;8.92;68.91;101750.65;1766644;76;21554;-54
2021/11/13 10:11:15;;;;;;;27.85;15.68;;;;;;;8.99;68.52;101753.23;1780656;78;21190;-53
2021/11/13 10:14:22;;;;;;;28.35;16.80;;;;;;;9.04;68.42;101751.83;1754381;77;21249;-55
2021/11/13 10:17:30;;;;;;;25.40;14.60;;;;;;;9.10;68.15;101749.08;1757615;76;21187;-55
2021/11/13 10:20:37;;;;;;;26.50;16.30;;;;;;;9.20;67.84;101747.77;1753212;77;21693;-54
2021/11/13 10:23:53;;;;;;;23.65;14.58;;;;;;;9.28;67.42;101752.91;1759879;76;21247;-55
2021/11/13 10:27:04;;;;;;;31.80;14.78;;;;;;;9.36;67.38;101742.67;1794818;79;21547;-54
2021/11/13 10:30:14;;;;;;;22.73;14.28;;;;;;;9.47;67.14;101744.83;1800181;77;21374;-55
2021/11/13 10:33:19;;;;;;;25.65;12.85;;;;;;;9.59;66.63;101747.86;1793596;77;21328;-55
2021/11/13 10:36:36;;;;;;;26.02;13.95;;;;;;;9.67;66.16;101744.44;1791977;77;21515;-55
2021/11/13 10:39:47;;;;;;;22.73;12.82;;;;;;;9.69;65.62;101740.55;1785489;78;21193;-55
2021/11/13 10:42:53;;;;;;;22.75;13.58;;;;;;;9.72;65.25;101739.43;1771583;77;21997;-55
2021/11/13 10:46:12;;;;;;;21.55;11.88;;;;;;;9.76;65.11;101743.11;1734427;79;21762;-55
2021/11/13 10:49:19;;;;;;;32.63;16.93;;;;;;;9.82;64.72;101740.31;1767367;79;21215;-54
2021/11/13 10:52:27;;;;;;;21.97;12.65;;;;;;;9.92;64.49;101734.39;1769407;78;21184;-54
2021/11/13 10:55:33;;;;;;;24.07;12.35;;;;;;;9.98;64.06;101738.80;1764313;78;21176;-55
2021/11/13 10:58:41;;;;;;;19.65;11.50;;;;;;;10.02;63.72;101739.40;1765939;78;21780;-57
2021/11/13 11:01:58;;;;;;;17.90;11.08;;;;;;;10.09;63.47;101739.22;1768660;78;21259;-54
2021/11/13 11:05:04;;;;;;;24.52;10.32;;;;;;;10.15;62.67;101734.05;1763747;77;21251;-55
2021/11/13 11:08:33;;;;;;;22.17;11.12;;;;;;;10.16;62.21;101737.67;1784543;77;21173;-55
2021/11/13 11:11:43;;;;;;;19.48;10.08;;;;;;;10.19;62.07;101731.42;1774419;77;22031;-55
2021/11/13 11:14:53;;;;;;;18.02;10.40;;;;;;;10.26;61.96;101730.33;1789748;77;21219;-55
2021/11/13 11:18:04;;;;;;;17.07;10.08;;;;;;;10.30;61.27;101735.41;1782134;77;21229;-54
2021/11/13 11:21:10;;;;;;;18.98;10.03;;;;;;;10.31;60.98;101733.02;1778704;78;21602;-54
2021/11/13 11:24:39;;;;;;;19.92;10.48;;;;;;;10.39;60.81;101730.44;1731106;80;21221;-55
2021/11/13 11:27:48;;;;;;;25.92;13.68;;;;;;;10.52;60.61;101735.64;1744031;79;22169;-55
2021/11/13 11:30:54;;;;;;;20.27;10.35;;;;;;;10.61;60.08;101731.19;1759413;79;21780;-55
2021/11/13 11:34:02;;;;;;;16.52;10.30;;;;;;;10.70;60.08;101718.88;1748394;79;21157;-56
2021/11/13 11:37:15;;;;;;;22.70;10.65;;;;;;;10.82;59.73;101724.55;1753686;79;21319;-55
2021/11/13 11:40:24;;;;;;;17.65;10.85;;;;;;;10.90;59.34;101722.45;1756552;81;21375;-55
2021/11/13 11:43:31;;;;;;;21.80;10.68;;;;;;;10.93;59.08;101725.77;1752623;79;21437;-55
2021/11/13 11:46:37;;;;;;;18.62;10.32;;;;;;;10.97;58.91;101724.98;1765047;77;21228;-56
2021/11/13 11:49:54;;;;;;;19.80;10.48;;;;;;;11.09;58.71;101723.30;1759519;77;21386;-55
2021/11/13 11:53:09;;;;;;;15.65;9.45;;;;;;;11.20;58.24;101720.39;1770087;79;21322;-56
2021/11/13 11:56:15;;;;;;;16.27;8.50;;;;;;;11.30;57.39;101717.63;1746181;77;21374;-55
2021/11/13 11:59:20;;;;;;;17.37;9.40;;;;;;;11.39;56.89;101716.73;1760121;77;21710;-55
2021/11/13 12:02:27;;;;;;;16.07;8.98;;;;;;;11.43;56.57;101721.77;1732756;77;21502;-54
2021/11/13 12:05:38;;;;;;;15.93;7.85;;;;;;;11.52;56.22;101726.38;1763006;76;21794;-55
2021/11/13 12:08:46;;;;;;;14.83;8.13;;;;;;;11.55;56.02;101721.09;1760242;78;21403;-57
2021/11/13 12:11:54;;;;;;;18.62;8.50;;;;;;;11.61;55.93;101719.11;1763277;78;21821;-58
2021/11/13 12:15:19;;;;;;;14.33;7.45;;;;;;;11.66;55.76;101709.97;1760401;78;21421;-57
2021/11/13 12:18:38;;;;;;;14.80;6.87;;;;;;;11.73;55.36;101713.84;1757427;79;21820;-56
2021/11/13 12:21:44;;;;;;;12.15;6.95;;;;;;;11.80;54.96;101713.58;1760124;79;21780;-55
2021/11/13 12:25:13;;;;;;;12.75;6.62;;;;;;;11.83;54.27;101718.27;1770483;77;21217;-56
2021/11/13 12:28:27;;;;;;;12.47;6.62;;;;;;;11.77;53.61;101720.25;1737626;79;21712;-56
2021/11/13 12:31:47;;;;;;;12.78;6.08;;;;;;;11.76;53.54;101721.77;1733409;78;22046;-55
2021/11/13 12:35:00;;;;;;;11.50;6.15;;;;;;;11.78;53.11;101722.50;1770592;77;21338;-55
2021/11/13 12:38:29;;;;;;;12.07;5.83;;;;;;;11.69;52.42;101723.38;1768972;78;21760;-55
2021/11/13 12:41:47;;;;;;;11.43;5.62;;;;;;;11.56;52.62;101726.95;1706581;82;21611;-54
2021/11/13 12:44:55;;;;;;;12.50;6.67;;;;;;;11.49;52.72;101728.55;1708137;81;21215;-55
2021/11/13 12:48:05;;;;;;;11.48;5.97;;;;;;;11.48;52.77;101736.43;1749301;78;21397;-56
2021/11/13 12:51:15;;;;;;;12.50;5.85;;;;;;;11.42;52.61;101737.88;1753962;80;21386;-55
2021/11/13 12:54:33;;;;;;;14.78;6.00;;;;;;;11.35;52.49;101746.32;1776256;76;21386;-55
2021/11/13 12:57:46;;;;;;;13.50;7.47;;;;;;;11.27;52.46;101754.94;1755115;81;21363;-55
2021/11/13 13:01:00;;;;;;;11.35;7.22;;;;;;;11.27;52.38;101750.83;1783197;76;21390;-56
2021/11/13 13:04:10;;;;;;;14.65;7.87;;;;;;;11.23;52.25;101745.27;1773069;78;21918;-55
2021/11/13 13:07:15;;;;;;;13.30;6.30;;;;;;;11.22;52.53;101748.53;1782573;78;21212;-55
2021/11/13 13:10:25;;;;;;;13.13;6.42;;;;;;;11.21;52.47;101746.78;1777276;77;21228;-55
2021/11/13 13:13:30;;;;;;;14.07;6.70;;;;;;;11.16;52.78;101750.47;1744941;79;21243;-55
2021/11/13 13:16:35;;;;;;;11.83;6.35;;;;;;;11.14;52.97;101747.52;1771218;79;21287;-55
2021/11/13 13:19:44;;;;;;;14.10;7.17;;;;;;;11.08;53.19;101746.74;1771518;78;21216;-55
2021/11/13 13:22:54;;;;;;;18.62;7.92;;;;;;;11.03;53.08;101750.42;1784953;78;21271;-55
2021/11/13 13:26:11;;;;;;;11.63;6.62;;;;;;;10.92;53.16;101745.09;1775469;79;21545;-55
2021/11/13 13:29:23;;;;;;;15.13;7.78;;;;;;;10.83;53.52;101751.45;1770431;77;22054;-55
2021/11/13 13:32:32;;;;;;;13.90;7.58;;;;;;;10.73;53.75;101748.70;1758486;79;21200;-56
2021/11/13 13:35:39;;;;;;;13.40;7.03;;;;;;;10.63;54.03;101744.21;1741233;79;21228;-55
2021/11/13 13:38:49;;;;;;;17.27;8.60;;;;;;;10.49;54.28;101738.66;1757973;79;21261;-56
2021/11/13 13:41:57;;;;;;;17.15;9.50;;;;;;;10.39;54.49;101739.14;1751276;78;21296;-55
2021/11/13 13:45:04;;;;;;;19.17;9.38;;;;;;;10.26;54.89;101749.48;1752980;78;21279;-55
2021/11/13 13:48:12;;;;;;;18.82;9.95;;;;;;;10.16;55.17;101743.14;1736077;79;21225;-55
2021/11/13 13:51:35;;;;;;;22.77;10.48;;;;;;;10.02;55.38;101736.14;1741933;79;21232;-55
2021/11/13 13:54:46;;;;;;;21.02;9.95;;;;;;;9.87;55.80;101746.23;1753915;80;21256;-56
2021/11/13 13:58:11;;;;;;;25.00;10.03;;;;;;;9.70;56.35;101757.34;1756196;78;21283;-56
2021/11/13 14:01:19;;;;;;;18.32;9.78;;;;;;;9.57;56.82;101763.53;1774267;78;21207;-55
2021/11/13 14:04:28;;;;;;;24.65;10.98;;;;;;;9.40;57.31;101764.64;1782682;79;21200;-55
2021/11/13 14:07:38;;;;;;;24.98;10.75;;;;;;;9.23;57.61;101760.64;1751149;79;21184;-55
2021/11/13 14:10:55;;;;;;;27.67;11.00;;;;;;;9.03;58.12;101754.20;1756285;78;21737;-55
2021/11/13 14:14:02;;;;;;;23.52;10.68;;;;;;;8.85;58.65;101751.67;1752943;77;21437;-55
2021/11/13 14:17:08;;;;;;;31.15;12.20;;;;;;;8.65;59.08;101747.55;1769218;79;21196;-54
2021/11/13 14:20:27;;;;;;;26.10;12.60;;;;;;;8.46;59.56;101754.19;1775413;77;21335;-54
2021/11/13 14:23:39;;;;;;;38.85;17.60;;;;;;;8.30;60.03;101749.64;1755409;77;21295;-55